sensor_id;sensor_type;location;lat;lon;timestamp;P1;durP1;ratioP1;P2;durP2;ratioP2
28529;SDS011;15737;49.760;6.632;2022-09-27T00:00:02;2.83;;;1.63;;
28529;SDS011;15737;49.760;6.632;2022-09-27T00:02:29;3.30;;;1.57;;
28529;SDS011;15737;49.760;6.632;2022-09-27T00:04:54;5.50;;;1.97;;
28529;SDS011;15737;49.760;6.632;2022-09-27T00:07:20;4.93;;;1.80;;
28529;SDS011;15737;49.760;6.632;2022-09-27T00:09:46;0.47;;;0.47;;
28529;SDS011;15737;49.760;6.632;2022-09-27T00:12:11;3.53;;;1.53;;
28529;SDS011;15737;49.760;6.632;2022-09-27T00:14:37;8.37;;;1.90;;
28529;SDS011;15737;49.760;6.632;2022-09-27T00:17:03;1.83;;;1.73;;
28529;SDS011;15737;49.760;6.632;2022-09-27T00:19:29;2.13;;;1.27;;
28529;SDS011;15737;49.760;6.632;2022-09-27T00:21:55;4.77;;;1.43;;
28529;SDS011;15737;49.760;6.632;2022-09-27T00:24:21;3.83;;;1.80;;
28529;SDS011;15737;49.760;6.632;2022-09-27T00:26:47;1.63;;;1.13;;
28529;SDS011;15737;49.760;6.632;2022-09-27T00:29:14;4.73;;;2.20;;
28529;SDS011;15737;49.760;6.632;2022-09-27T00:31:40;1.53;;;1.10;;
28529;SDS011;15737;49.760;6.632;2022-09-27T00:34:06;2.33;;;0.93;;
28529;SDS011;15737;49.760;6.632;2022-09-27T00:36:35;4.20;;;1.77;;
28529;SDS011;15737;49.760;6.632;2022-09-27T00:39:01;2.20;;;1.50;;
28529;SDS011;15737;49.760;6.632;2022-09-27T00:41:30;3.80;;;1.40;;
28529;SDS011;15737;49.760;6.632;2022-09-27T00:44:45;2.70;;;1.27;;
28529;SDS011;15737;49.760;6.632;2022-09-27T00:46:59;1.90;;;1.53;;
28529;SDS011;15737;49.760;6.632;2022-09-27T00:49:31;4.47;;;1.67;;
28529;SDS011;15737;49.760;6.632;2022-09-27T00:52:04;6.57;;;1.40;;
28529;SDS011;15737;49.760;6.632;2022-09-27T00:54:33;1.13;;;1.00;;
28529;SDS011;15737;49.760;6.632;2022-09-27T00:57:03;4.80;;;1.30;;
28529;SDS011;15737;49.760;6.632;2022-09-27T00:59:32;2.67;;;1.27;;
28529;SDS011;15737;49.760;6.632;2022-09-27T01:02:01;3.13;;;1.30;;
28529;SDS011;15737;49.760;6.632;2022-09-27T01:04:30;1.33;;;1.20;;
28529;SDS011;15737;49.760;6.632;2022-09-27T01:06:56;1.90;;;1.20;;
28529;SDS011;15737;49.760;6.632;2022-09-27T01:09:22;2.43;;;1.40;;
28529;SDS011;15737;49.760;6.632;2022-09-27T01:20:19;1.20;;;1.10;;
28529;SDS011;15737;49.760;6.632;2022-09-27T01:23:32;5.07;;;1.03;;
28529;SDS011;15737;49.760;6.632;2022-09-27T01:29:14;2.60;;;1.10;;
28529;SDS011;15737;49.760;6.632;2022-09-27T01:35:15;3.90;;;1.13;;
28529;SDS011;15737;49.760;6.632;2022-09-27T01:38:03;2.07;;;1.17;;
28529;SDS011;15737;49.760;6.632;2022-09-27T01:43:37;3.27;;;0.90;;
28529;SDS011;15737;49.760;6.632;2022-09-27T01:46:20;0.47;;;0.37;;
28529;SDS011;15737;49.760;6.632;2022-09-27T01:48:50;2.73;;;0.60;;
28529;SDS011;15737;49.760;6.632;2022-09-27T01:51:27;1.57;;;0.70;;
28529;SDS011;15737;49.760;6.632;2022-09-27T01:54:00;1.40;;;0.70;;
28529;SDS011;15737;49.760;6.632;2022-09-27T01:56:36;0.47;;;0.47;;
28529;SDS011;15737;49.760;6.632;2022-09-27T01:59:10;1.23;;;0.50;;
28529;SDS011;15737;49.760;6.632;2022-09-27T02:01:53;0.30;;;0.30;;
28529;SDS011;15737;49.760;6.632;2022-09-27T02:04:24;0.63;;;0.53;;
28529;SDS011;15737;49.760;6.632;2022-09-27T02:06:56;2.33;;;0.50;;
28529;SDS011;15737;49.760;6.632;2022-09-27T02:09:30;1.40;;;0.43;;
28529;SDS011;15737;49.760;6.632;2022-09-27T02:12:02;0.20;;;0.20;;
28529;SDS011;15737;49.760;6.632;2022-09-27T02:14:35;1.30;;;0.37;;
28529;SDS011;15737;49.760;6.632;2022-09-27T02:30:29;0.20;;;0.20;;
28529;SDS011;15737;49.760;6.632;2022-09-27T02:32:55;1.53;;;0.50;;
28529;SDS011;15737;49.760;6.632;2022-09-27T02:35:25;0.30;;;0.30;;
28529;SDS011;15737;49.760;6.632;2022-09-27T02:37:54;2.87;;;0.50;;
28529;SDS011;15737;49.760;6.632;2022-09-27T02:40:20;0.20;;;0.20;;
28529;SDS011;15737;49.760;6.632;2022-09-27T02:42:46;0.47;;;0.47;;
28529;SDS011;15737;49.760;6.632;2022-09-27T02:45:12;0.30;;;0.30;;
28529;SDS011;15737;49.760;6.632;2022-09-27T02:47:44;0.27;;;0.27;;
28529;SDS011;15737;49.760;6.632;2022-09-27T03:06:33;0.60;;;0.50;;
28529;SDS011;15737;49.760;6.632;2022-09-27T03:09:01;0.20;;;0.20;;
28529;SDS011;15737;49.760;6.632;2022-09-27T03:11:27;1.13;;;0.50;;
28529;SDS011;15737;49.760;6.632;2022-09-27T03:13:52;0.40;;;0.40;;
28529;SDS011;15737;49.760;6.632;2022-09-27T03:16:18;2.53;;;0.40;;
28529;SDS011;15737;49.760;6.632;2022-09-27T03:18:44;0.50;;;0.50;;
28529;SDS011;15737;49.760;6.632;2022-09-27T03:21:09;0.20;;;0.20;;
28529;SDS011;15737;49.760;6.632;2022-09-27T03:23:35;1.47;;;0.43;;
28529;SDS011;15737;49.760;6.632;2022-09-27T03:26:00;3.13;;;0.40;;
28529;SDS011;15737;49.760;6.632;2022-09-27T03:28:26;0.47;;;0.30;;
28529;SDS011;15737;49.760;6.632;2022-09-27T03:30:53;0.50;;;0.50;;
28529;SDS011;15737;49.760;6.632;2022-09-27T03:33:19;0.73;;;0.60;;
28529;SDS011;15737;49.760;6.632;2022-09-27T03:35:44;0.30;;;0.30;;
28529;SDS011;15737;49.760;6.632;2022-09-27T03:38:10;2.00;;;0.60;;
28529;SDS011;15737;49.760;6.632;2022-09-27T03:40:36;0.50;;;0.50;;
28529;SDS011;15737;49.760;6.632;2022-09-27T03:43:02;0.97;;;0.70;;
28529;SDS011;15737;49.760;6.632;2022-09-27T03:45:28;0.43;;;0.43;;
28529;SDS011;15737;49.760;6.632;2022-09-27T03:47:53;1.07;;;0.50;;
28529;SDS011;15737;49.760;6.632;2022-09-27T03:50:19;4.13;;;0.30;;
28529;SDS011;15737;49.760;6.632;2022-09-27T03:52:45;0.30;;;0.30;;
28529;SDS011;15737;49.760;6.632;2022-09-27T03:57:43;0.30;;;0.30;;
28529;SDS011;15737;49.760;6.632;2022-09-27T04:00:09;0.47;;;0.47;;
28529;SDS011;15737;49.760;6.632;2022-09-27T04:02:35;0.53;;;0.50;;
28529;SDS011;15737;49.760;6.632;2022-09-27T04:05:01;0.40;;;0.40;;
28529;SDS011;15737;49.760;6.632;2022-09-27T04:07:26;0.60;;;0.60;;
28529;SDS011;15737;49.760;6.632;2022-09-27T04:09:52;0.30;;;0.30;;
28529;SDS011;15737;49.760;6.632;2022-09-27T04:12:18;1.50;;;0.53;;
28529;SDS011;15737;49.760;6.632;2022-09-27T04:14:43;0.53;;;0.50;;
28529;SDS011;15737;49.760;6.632;2022-09-27T04:17:09;3.40;;;0.60;;
28529;SDS011;15737;49.760;6.632;2022-09-27T04:19:34;1.87;;;0.80;;
28529;SDS011;15737;49.760;6.632;2022-09-27T04:22:01;0.47;;;0.47;;
28529;SDS011;15737;49.760;6.632;2022-09-27T04:24:27;0.27;;;0.27;;
28529;SDS011;15737;49.760;6.632;2022-09-27T04:26:52;0.50;;;0.50;;
28529;SDS011;15737;49.760;6.632;2022-09-27T04:29:18;0.30;;;0.30;;
28529;SDS011;15737;49.760;6.632;2022-09-27T04:31:43;1.80;;;0.50;;
28529;SDS011;15737;49.760;6.632;2022-09-27T04:34:09;4.27;;;0.53;;
28529;SDS011;15737;49.760;6.632;2022-09-27T04:36:35;0.63;;;0.50;;
28529;SDS011;15737;49.760;6.632;2022-09-27T04:39:01;3.30;;;0.63;;
28529;SDS011;15737;49.760;6.632;2022-09-27T04:41:28;0.50;;;0.50;;
28529;SDS011;15737;49.760;6.632;2022-09-27T04:43:55;0.43;;;0.43;;
28529;SDS011;15737;49.760;6.632;2022-09-27T04:46:21;0.43;;;0.43;;
28529;SDS011;15737;49.760;6.632;2022-09-27T04:48:48;0.60;;;0.60;;
28529;SDS011;15737;49.760;6.632;2022-09-27T04:51:14;0.33;;;0.30;;
28529;SDS011;15737;49.760;6.632;2022-09-27T04:53:42;1.40;;;0.40;;
28529;SDS011;15737;49.760;6.632;2022-09-27T04:56:11;0.40;;;0.40;;
28529;SDS011;15737;49.760;6.632;2022-09-27T04:58:38;0.20;;;0.20;;
28529;SDS011;15737;49.760;6.632;2022-09-27T05:01:04;0.43;;;0.43;;
28529;SDS011;15737;49.760;6.632;2022-09-27T05:03:30;1.07;;;0.40;;
28529;SDS011;15737;49.760;6.632;2022-09-27T05:05:56;3.30;;;0.40;;
28529;SDS011;15737;49.760;6.632;2022-09-27T05:08:22;0.30;;;0.30;;
28529;SDS011;15737;49.760;6.632;2022-09-27T05:10:48;1.70;;;0.40;;
28529;SDS011;15737;49.760;6.632;2022-09-27T05:13:14;0.30;;;0.30;;
28529;SDS011;15737;49.760;6.632;2022-09-27T05:15:40;0.40;;;0.40;;
28529;SDS011;15737;49.760;6.632;2022-09-27T05:18:06;0.67;;;0.30;;
28529;SDS011;15737;49.760;6.632;2022-09-27T05:20:34;1.80;;;0.40;;
28529;SDS011;15737;49.760;6.632;2022-09-27T05:23:01;3.50;;;0.60;;
28529;SDS011;15737;49.760;6.632;2022-09-27T05:25:28;0.80;;;0.40;;
28529;SDS011;15737;49.760;6.632;2022-09-27T05:30:25;1.50;;;0.67;;
28529;SDS011;15737;49.760;6.632;2022-09-27T05:32:51;0.40;;;0.40;;
28529;SDS011;15737;49.760;6.632;2022-09-27T05:35:18;0.47;;;0.47;;
28529;SDS011;15737;49.760;6.632;2022-09-27T05:37:54;0.40;;;0.40;;
28529;SDS011;15737;49.760;6.632;2022-09-27T05:40:21;0.40;;;0.40;;
28529;SDS011;15737;49.760;6.632;2022-09-27T05:42:52;2.73;;;0.50;;
28529;SDS011;15737;49.760;6.632;2022-09-27T05:45:18;0.70;;;0.53;;
28529;SDS011;15737;49.760;6.632;2022-09-27T05:48:06;0.77;;;0.50;;
28529;SDS011;15737;49.760;6.632;2022-09-27T05:50:31;1.40;;;0.50;;
28529;SDS011;15737;49.760;6.632;2022-09-27T05:52:56;5.50;;;0.60;;
28529;SDS011;15737;49.760;6.632;2022-09-27T05:55:22;3.00;;;0.60;;
28529;SDS011;15737;49.760;6.632;2022-09-27T05:57:57;0.50;;;0.50;;
28529;SDS011;15737;49.760;6.632;2022-09-27T06:00:25;0.27;;;0.27;;
28529;SDS011;15737;49.760;6.632;2022-09-27T06:02:52;0.60;;;0.60;;
28529;SDS011;15737;49.760;6.632;2022-09-27T06:05:23;0.30;;;0.30;;
28529;SDS011;15737;49.760;6.632;2022-09-27T06:07:49;0.13;;;0.13;;
28529;SDS011;15737;49.760;6.632;2022-09-27T06:10:17;0.40;;;0.40;;
28529;SDS011;15737;49.760;6.632;2022-09-27T06:12:43;1.47;;;0.70;;
28529;SDS011;15737;49.760;6.632;2022-09-27T06:15:09;0.40;;;0.40;;
28529;SDS011;15737;49.760;6.632;2022-09-27T06:17:35;0.37;;;0.30;;
28529;SDS011;15737;49.760;6.632;2022-09-27T06:20:01;0.30;;;0.30;;
28529;SDS011;15737;49.760;6.632;2022-09-27T06:22:28;0.37;;;0.37;;
28529;SDS011;15737;49.760;6.632;2022-09-27T06:24:54;0.40;;;0.40;;
28529;SDS011;15737;49.760;6.632;2022-09-27T06:27:19;1.43;;;0.43;;
28529;SDS011;15737;49.760;6.632;2022-09-27T06:32:13;2.30;;;0.20;;
28529;SDS011;15737;49.760;6.632;2022-09-27T06:34:39;0.03;;;0.03;;
28529;SDS011;15737;49.760;6.632;2022-09-27T06:37:05;0.57;;;0.37;;
28529;SDS011;15737;49.760;6.632;2022-09-27T06:39:31;0.13;;;0.13;;
28529;SDS011;15737;49.760;6.632;2022-09-27T06:41:58;0.40;;;0.40;;
28529;SDS011;15737;49.760;6.632;2022-09-27T06:44:24;0.20;;;0.20;;
28529;SDS011;15737;49.760;6.632;2022-09-27T06:46:50;0.57;;;0.30;;
28529;SDS011;15737;49.760;6.632;2022-09-27T06:49:16;0.20;;;0.20;;
28529;SDS011;15737;49.760;6.632;2022-09-27T06:51:43;0.43;;;0.37;;
28529;SDS011;15737;49.760;6.632;2022-09-27T06:54:09;0.13;;;0.10;;
28529;SDS011;15737;49.760;6.632;2022-09-27T06:56:35;1.03;;;0.40;;
28529;SDS011;15737;49.760;6.632;2022-09-27T06:59:00;0.27;;;0.27;;
28529;SDS011;15737;49.760;6.632;2022-09-27T07:01:44;1.73;;;0.23;;
28529;SDS011;15737;49.760;6.632;2022-09-27T07:04:10;0.10;;;0.10;;
28529;SDS011;15737;49.760;6.632;2022-09-27T07:06:37;0.20;;;0.20;;
28529;SDS011;15737;49.760;6.632;2022-09-27T07:09:03;0.20;;;0.20;;
28529;SDS011;15737;49.760;6.632;2022-09-27T07:11:33;2.13;;;0.30;;
28529;SDS011;15737;49.760;6.632;2022-09-27T07:14:00;0.50;;;0.20;;
28529;SDS011;15737;49.760;6.632;2022-09-27T07:16:27;0.30;;;0.30;;
28529;SDS011;15737;49.760;6.632;2022-09-27T07:18:53;0.47;;;0.47;;
28529;SDS011;15737;49.760;6.632;2022-09-27T07:21:18;1.17;;;0.60;;
28529;SDS011;15737;49.760;6.632;2022-09-27T07:23:44;0.40;;;0.40;;
28529;SDS011;15737;49.760;6.632;2022-09-27T07:26:10;0.70;;;0.50;;
28529;SDS011;15737;49.760;6.632;2022-09-27T07:28:36;1.40;;;0.37;;
28529;SDS011;15737;49.760;6.632;2022-09-27T07:31:05;0.60;;;0.60;;
28529;SDS011;15737;49.760;6.632;2022-09-27T07:33:31;1.70;;;0.60;;
28529;SDS011;15737;49.760;6.632;2022-09-27T07:35:57;0.70;;;0.70;;
28529;SDS011;15737;49.760;6.632;2022-09-27T07:38:22;0.60;;;0.60;;
28529;SDS011;15737;49.760;6.632;2022-09-27T07:40:48;1.63;;;0.50;;
28529;SDS011;15737;49.760;6.632;2022-09-27T07:43:14;0.50;;;0.50;;
28529;SDS011;15737;49.760;6.632;2022-09-27T07:45:39;1.23;;;0.80;;
28529;SDS011;15737;49.760;6.632;2022-09-27T07:48:05;1.53;;;0.80;;
28529;SDS011;15737;49.760;6.632;2022-09-27T07:50:32;0.73;;;0.73;;
28529;SDS011;15737;49.760;6.632;2022-09-27T07:52:58;1.50;;;0.70;;
28529;SDS011;15737;49.760;6.632;2022-09-27T07:55:24;1.53;;;0.77;;
28529;SDS011;15737;49.760;6.632;2022-09-27T07:57:49;1.17;;;1.00;;
28529;SDS011;15737;49.760;6.632;2022-09-27T08:00:16;3.13;;;1.43;;
28529;SDS011;15737;49.760;6.632;2022-09-27T08:02:43;1.13;;;1.00;;
28529;SDS011;15737;49.760;6.632;2022-09-27T08:05:09;2.40;;;0.93;;
28529;SDS011;15737;49.760;6.632;2022-09-27T08:07:37;1.87;;;1.10;;
28529;SDS011;15737;49.760;6.632;2022-09-27T08:10:03;1.90;;;1.13;;
28529;SDS011;15737;49.760;6.632;2022-09-27T08:12:30;1.10;;;1.00;;
28529;SDS011;15737;49.760;6.632;2022-09-27T08:14:56;3.97;;;1.20;;
28529;SDS011;15737;49.760;6.632;2022-09-27T08:17:25;1.83;;;1.23;;
28529;SDS011;15737;49.760;6.632;2022-09-27T08:19:52;1.33;;;1.20;;
28529;SDS011;15737;49.760;6.632;2022-09-27T08:22:17;1.43;;;1.27;;
28529;SDS011;15737;49.760;6.632;2022-09-27T08:24:45;1.17;;;1.17;;
28529;SDS011;15737;49.760;6.632;2022-09-27T08:27:11;0.60;;;0.60;;
28529;SDS011;15737;49.760;6.632;2022-09-27T08:29:37;3.80;;;1.70;;
28529;SDS011;15737;49.760;6.632;2022-09-27T08:32:05;2.57;;;0.90;;
28529;SDS011;15737;49.760;6.632;2022-09-27T08:34:37;1.60;;;0.87;;
28529;SDS011;15737;49.760;6.632;2022-09-27T08:37:03;0.80;;;0.80;;
28529;SDS011;15737;49.760;6.632;2022-09-27T08:39:29;2.17;;;1.47;;
28529;SDS011;15737;49.760;6.632;2022-09-27T08:42:05;1.20;;;1.10;;
28529;SDS011;15737;49.760;6.632;2022-09-27T08:47:18;1.80;;;1.60;;
28529;SDS011;15737;49.760;6.632;2022-09-27T08:49:57;1.87;;;1.60;;
28529;SDS011;15737;49.760;6.632;2022-09-27T08:52:38;4.03;;;1.40;;
28529;SDS011;15737;49.760;6.632;2022-09-27T08:57:49;2.67;;;1.30;;
28529;SDS011;15737;49.760;6.632;2022-09-27T09:00:20;1.53;;;1.43;;
28529;SDS011;15737;49.760;6.632;2022-09-27T09:02:46;3.50;;;1.50;;
28529;SDS011;15737;49.760;6.632;2022-09-27T09:05:31;3.23;;;1.17;;
28529;SDS011;15737;49.760;6.632;2022-09-27T09:08:05;2.87;;;1.50;;
28529;SDS011;15737;49.760;6.632;2022-09-27T09:10:56;2.67;;;1.43;;
28529;SDS011;15737;49.760;6.632;2022-09-27T09:14:06;1.63;;;1.33;;
28529;SDS011;15737;49.760;6.632;2022-09-27T09:30:34;3.40;;;1.00;;
28529;SDS011;15737;49.760;6.632;2022-09-27T09:33:10;5.70;;;1.50;;
28529;SDS011;15737;49.760;6.632;2022-09-27T09:38:23;5.60;;;1.27;;
28529;SDS011;15737;49.760;6.632;2022-09-27T09:41:17;3.60;;;1.17;;
28529;SDS011;15737;49.760;6.632;2022-09-27T09:46:40;1.53;;;1.00;;
28529;SDS011;15737;49.760;6.632;2022-09-27T09:49:17;7.67;;;1.33;;
28529;SDS011;15737;49.760;6.632;2022-09-27T09:51:59;2.93;;;0.60;;
28529;SDS011;15737;49.760;6.632;2022-09-27T10:02:31;5.77;;;1.00;;
28529;SDS011;15737;49.760;6.632;2022-09-27T10:05:00;0.67;;;0.67;;
28529;SDS011;15737;49.760;6.632;2022-09-27T10:07:27;1.53;;;1.17;;
28529;SDS011;15737;49.760;6.632;2022-09-27T10:09:54;1.30;;;1.20;;
28529;SDS011;15737;49.760;6.632;2022-09-27T10:12:24;0.97;;;0.97;;
28529;SDS011;15737;49.760;6.632;2022-09-27T10:14:50;3.47;;;1.87;;
28529;SDS011;15737;49.760;6.632;2022-09-27T10:17:18;0.77;;;0.53;;
28529;SDS011;15737;49.760;6.632;2022-09-27T10:19:47;0.53;;;0.40;;
28529;SDS011;15737;49.760;6.632;2022-09-27T10:22:22;0.57;;;0.57;;
28529;SDS011;15737;49.760;6.632;2022-09-27T10:27:18;1.47;;;0.90;;
28529;SDS011;15737;49.760;6.632;2022-09-27T10:29:43;0.83;;;0.83;;
28529;SDS011;15737;49.760;6.632;2022-09-27T10:32:30;3.63;;;1.27;;
28529;SDS011;15737;49.760;6.632;2022-09-27T10:37:45;2.40;;;0.67;;
28529;SDS011;15737;49.760;6.632;2022-09-27T10:40:27;1.07;;;0.80;;
28529;SDS011;15737;49.760;6.632;2022-09-27T10:42:59;1.53;;;0.83;;
28529;SDS011;15737;49.760;6.632;2022-09-27T10:45:28;1.90;;;0.77;;
28529;SDS011;15737;49.760;6.632;2022-09-27T10:47:56;1.60;;;0.70;;
28529;SDS011;15737;49.760;6.632;2022-09-27T10:50:24;0.70;;;0.70;;
28529;SDS011;15737;49.760;6.632;2022-09-27T10:53:02;1.23;;;0.90;;
28529;SDS011;15737;49.760;6.632;2022-09-27T10:55:37;2.93;;;0.90;;
28529;SDS011;15737;49.760;6.632;2022-09-27T10:58:04;2.23;;;0.87;;
28529;SDS011;15737;49.760;6.632;2022-09-27T11:00:31;1.40;;;0.90;;
28529;SDS011;15737;49.760;6.632;2022-09-27T11:02:59;1.40;;;0.80;;
28529;SDS011;15737;49.760;6.632;2022-09-27T11:05:31;1.03;;;0.80;;
28529;SDS011;15737;49.760;6.632;2022-09-27T11:08:00;3.00;;;0.80;;
28529;SDS011;15737;49.760;6.632;2022-09-27T11:10:44;2.00;;;0.93;;
28529;SDS011;15737;49.760;6.632;2022-09-27T11:14:05;1.83;;;0.80;;
28529;SDS011;15737;49.760;6.632;2022-09-27T11:16:47;2.22;;;1.17;;
28529;SDS011;15737;49.760;6.632;2022-09-27T11:25:33;5.03;;;3.87;;
28529;SDS011;15737;49.760;6.632;2022-09-27T11:36:44;0.70;;;0.60;;
28529;SDS011;15737;49.760;6.632;2022-09-27T11:39:40;2.03;;;1.10;;
28529;SDS011;15737;49.760;6.632;2022-09-27T11:45:23;1.90;;;1.80;;
28529;SDS011;15737;49.760;6.632;2022-09-27T11:48:13;3.17;;;1.10;;
28529;SDS011;15737;49.760;6.632;2022-09-27T11:51:07;0.80;;;0.50;;
28529;SDS011;15737;49.760;6.632;2022-09-27T11:53:47;2.00;;;0.97;;
28529;SDS011;15737;49.760;6.632;2022-09-27T12:01:52;0.77;;;0.33;;
28529;SDS011;15737;49.760;6.632;2022-09-27T12:07:17;2.53;;;1.40;;
28529;SDS011;15737;49.760;6.632;2022-09-27T12:09:56;1.67;;;0.90;;
28529;SDS011;15737;49.760;6.632;2022-09-27T12:12:30;2.93;;;1.10;;
28529;SDS011;15737;49.760;6.632;2022-09-27T12:15:05;0.47;;;0.40;;
28529;SDS011;15737;49.760;6.632;2022-09-27T12:17:45;1.67;;;0.53;;
28529;SDS011;15737;49.760;6.632;2022-09-27T12:20:24;2.77;;;1.43;;
28529;SDS011;15737;49.760;6.632;2022-09-27T12:23:14;2.23;;;1.40;;
28529;SDS011;15737;49.760;6.632;2022-09-27T12:25:45;0.50;;;0.50;;
28529;SDS011;15737;49.760;6.632;2022-09-27T12:31:14;1.57;;;0.90;;
28529;SDS011;15737;49.760;6.632;2022-09-27T12:33:38;0.93;;;0.80;;
28529;SDS011;15737;49.760;6.632;2022-09-27T12:36:10;0.67;;;0.67;;
28529;SDS011;15737;49.760;6.632;2022-09-27T12:38:42;4.18;;;2.00;;
28529;SDS011;15737;49.760;6.632;2022-09-27T12:41:21;2.43;;;1.10;;
28529;SDS011;15737;49.760;6.632;2022-09-27T12:43:48;0.80;;;0.80;;
28529;SDS011;15737;49.760;6.632;2022-09-27T12:46:18;0.57;;;0.57;;
28529;SDS011;15737;49.760;6.632;2022-09-27T12:51:40;2.83;;;0.80;;
28529;SDS011;15737;49.760;6.632;2022-09-27T13:00:17;1.37;;;0.70;;
28529;SDS011;15737;49.760;6.632;2022-09-27T13:06:04;2.00;;;0.70;;
28529;SDS011;15737;49.760;6.632;2022-09-27T13:11:55;3.33;;;0.87;;
28529;SDS011;15737;49.760;6.632;2022-09-27T13:14:53;0.90;;;0.80;;
28529;SDS011;15737;49.760;6.632;2022-09-27T13:23:01;4.63;;;0.70;;
28529;SDS011;15737;49.760;6.632;2022-09-27T13:25:45;3.47;;;0.90;;
28529;SDS011;15737;49.760;6.632;2022-09-27T13:31:07;1.07;;;0.90;;
28529;SDS011;15737;49.760;6.632;2022-09-27T13:38:52;1.93;;;0.80;;
28529;SDS011;15737;49.760;6.632;2022-09-27T13:46:48;0.97;;;0.70;;
28529;SDS011;15737;49.760;6.632;2022-09-27T13:49:38;1.17;;;0.80;;
28529;SDS011;15737;49.760;6.632;2022-09-27T13:52:23;0.50;;;0.50;;
28529;SDS011;15737;49.760;6.632;2022-09-27T13:54:57;3.13;;;0.70;;
28529;SDS011;15737;49.760;6.632;2022-09-27T14:00:11;0.67;;;0.50;;
28529;SDS011;15737;49.760;6.632;2022-09-27T14:02:44;0.83;;;0.63;;
28529;SDS011;15737;49.760;6.632;2022-09-27T14:07:46;0.80;;;0.70;;
28529;SDS011;15737;49.760;6.632;2022-09-27T14:10:16;1.90;;;0.67;;
28529;SDS011;15737;49.760;6.632;2022-09-27T14:12:45;0.63;;;0.63;;
28529;SDS011;15737;49.760;6.632;2022-09-27T14:15:16;0.77;;;0.77;;
28529;SDS011;15737;49.760;6.632;2022-09-27T14:17:51;0.93;;;0.40;;
28529;SDS011;15737;49.760;6.632;2022-09-27T14:23:15;0.50;;;0.33;;
28529;SDS011;15737;49.760;6.632;2022-09-27T14:25:45;0.40;;;0.40;;
28529;SDS011;15737;49.760;6.632;2022-09-27T14:28:19;1.83;;;0.60;;
28529;SDS011;15737;49.760;6.632;2022-09-27T14:30:45;0.60;;;0.40;;
28529;SDS011;15737;49.760;6.632;2022-09-27T14:33:28;0.63;;;0.63;;
28529;SDS011;15737;49.760;6.632;2022-09-27T14:35:55;0.50;;;0.50;;
28529;SDS011;15737;49.760;6.632;2022-09-27T14:38:35;0.40;;;0.40;;
28529;SDS011;15737;49.760;6.632;2022-09-27T14:41:02;1.57;;;0.60;;
28529;SDS011;15737;49.760;6.632;2022-09-27T14:43:29;0.63;;;0.53;;
28529;SDS011;15737;49.760;6.632;2022-09-27T14:46:05;1.83;;;0.60;;
28529;SDS011;15737;49.760;6.632;2022-09-27T14:48:35;0.30;;;0.30;;
28529;SDS011;15737;49.760;6.632;2022-09-27T14:53:35;0.60;;;0.60;;
28529;SDS011;15737;49.760;6.632;2022-09-27T14:56:16;0.40;;;0.40;;
28529;SDS011;15737;49.760;6.632;2022-09-27T14:58:46;1.33;;;0.50;;
28529;SDS011;15737;49.760;6.632;2022-09-27T15:01:17;0.70;;;0.70;;
28529;SDS011;15737;49.760;6.632;2022-09-27T15:03:47;0.70;;;0.70;;
28529;SDS011;15737;49.760;6.632;2022-09-27T15:06:17;1.17;;;0.60;;
28529;SDS011;15737;49.760;6.632;2022-09-27T15:08:44;0.70;;;0.70;;
28529;SDS011;15737;49.760;6.632;2022-09-27T15:11:13;0.97;;;0.57;;
28529;SDS011;15737;49.760;6.632;2022-09-27T15:13:39;0.87;;;0.63;;
28529;SDS011;15737;49.760;6.632;2022-09-27T15:16:12;0.77;;;0.77;;
28529;SDS011;15737;49.760;6.632;2022-09-27T15:18:43;1.67;;;0.70;;
28529;SDS011;15737;49.760;6.632;2022-09-27T15:21:14;1.33;;;0.77;;
28529;SDS011;15737;49.760;6.632;2022-09-27T15:23:52;0.60;;;0.60;;
28529;SDS011;15737;49.760;6.632;2022-09-27T15:26:23;0.93;;;0.60;;
28529;SDS011;15737;49.760;6.632;2022-09-27T15:28:57;0.90;;;0.80;;
28529;SDS011;15737;49.760;6.632;2022-09-27T15:31:30;1.53;;;0.83;;
28529;SDS011;15737;49.760;6.632;2022-09-27T15:34:00;1.20;;;0.80;;
28529;SDS011;15737;49.760;6.632;2022-09-27T15:42:05;4.07;;;0.70;;
28529;SDS011;15737;49.760;6.632;2022-09-27T15:44:37;2.73;;;0.80;;
28529;SDS011;15737;49.760;6.632;2022-09-27T15:49:58;2.07;;;0.77;;
28529;SDS011;15737;49.760;6.632;2022-09-27T15:52:48;0.60;;;0.60;;
28529;SDS011;15737;49.760;6.632;2022-09-27T15:55:20;1.60;;;0.83;;
28529;SDS011;15737;49.760;6.632;2022-09-27T15:57:50;0.70;;;0.70;;
28529;SDS011;15737;49.760;6.632;2022-09-27T16:00:22;1.17;;;0.67;;
28529;SDS011;15737;49.760;6.632;2022-09-27T16:02:47;1.33;;;0.67;;
28529;SDS011;15737;49.760;6.632;2022-09-27T16:05:13;2.67;;;1.00;;
28529;SDS011;15737;49.760;6.632;2022-09-27T16:07:38;2.57;;;0.83;;
28529;SDS011;15737;49.760;6.632;2022-09-27T16:12:50;1.33;;;0.73;;
28529;SDS011;15737;49.760;6.632;2022-09-27T16:15:16;0.50;;;0.50;;
28529;SDS011;15737;49.760;6.632;2022-09-27T16:17:42;1.03;;;0.53;;
28529;SDS011;15737;49.760;6.632;2022-09-27T16:20:18;1.53;;;0.77;;
28529;SDS011;15737;49.760;6.632;2022-09-27T16:22:47;0.67;;;0.57;;
28529;SDS011;15737;49.760;6.632;2022-09-27T16:25:13;1.60;;;0.90;;
28529;SDS011;15737;49.760;6.632;2022-09-27T16:27:38;1.43;;;0.63;;
28529;SDS011;15737;49.760;6.632;2022-09-27T16:30:04;0.47;;;0.47;;
28529;SDS011;15737;49.760;6.632;2022-09-27T16:32:30;1.80;;;0.87;;
28529;SDS011;15737;49.760;6.632;2022-09-27T16:34:56;0.50;;;0.40;;
28529;SDS011;15737;49.760;6.632;2022-09-27T16:37:21;0.30;;;0.30;;
28529;SDS011;15737;49.760;6.632;2022-09-27T16:39:47;1.13;;;0.63;;
28529;SDS011;15737;49.760;6.632;2022-09-27T16:42:15;2.80;;;0.57;;
28529;SDS011;15737;49.760;6.632;2022-09-27T16:44:41;0.90;;;0.60;;
28529;SDS011;15737;49.760;6.632;2022-09-27T16:47:06;0.83;;;0.30;;
28529;SDS011;15737;49.760;6.632;2022-09-27T16:49:33;0.63;;;0.60;;
28529;SDS011;15737;49.760;6.632;2022-09-27T16:52:17;0.47;;;0.47;;
28529;SDS011;15737;49.760;6.632;2022-09-27T16:54:42;0.60;;;0.60;;
28529;SDS011;15737;49.760;6.632;2022-09-27T16:57:08;0.40;;;0.40;;
28529;SDS011;15737;49.760;6.632;2022-09-27T16:59:34;0.70;;;0.70;;
28529;SDS011;15737;49.760;6.632;2022-09-27T17:01:59;2.63;;;0.70;;
28529;SDS011;15737;49.760;6.632;2022-09-27T17:04:25;2.87;;;1.03;;
28529;SDS011;15737;49.760;6.632;2022-09-27T17:06:52;2.30;;;0.77;;
28529;SDS011;15737;49.760;6.632;2022-09-27T17:09:19;2.17;;;0.80;;
28529;SDS011;15737;49.760;6.632;2022-09-27T17:11:45;3.37;;;1.13;;
28529;SDS011;15737;49.760;6.632;2022-09-27T17:16:42;0.93;;;0.70;;
28529;SDS011;15737;49.760;6.632;2022-09-27T17:19:09;0.90;;;0.50;;
28529;SDS011;15737;49.760;6.632;2022-09-27T17:21:35;4.93;;;0.73;;
28529;SDS011;15737;49.760;6.632;2022-09-27T17:24:01;0.60;;;0.60;;
28529;SDS011;15737;49.760;6.632;2022-09-27T17:26:26;0.80;;;0.67;;
28529;SDS011;15737;49.760;6.632;2022-09-27T17:28:54;0.50;;;0.50;;
28529;SDS011;15737;49.760;6.632;2022-09-27T17:31:21;3.50;;;0.70;;
28529;SDS011;15737;49.760;6.632;2022-09-27T17:33:48;2.33;;;0.50;;
28529;SDS011;15737;49.760;6.632;2022-09-27T17:36:22;0.53;;;0.40;;
28529;SDS011;15737;49.760;6.632;2022-09-27T17:38:50;1.23;;;1.23;;
28529;SDS011;15737;49.760;6.632;2022-09-27T17:41:17;1.43;;;0.70;;
28529;SDS011;15737;49.760;6.632;2022-09-27T17:43:45;1.07;;;0.60;;
28529;SDS011;15737;49.760;6.632;2022-09-27T17:46:14;0.57;;;0.57;;
28529;SDS011;15737;49.760;6.632;2022-09-27T17:48:41;0.50;;;0.50;;
28529;SDS011;15737;49.760;6.632;2022-09-27T17:51:25;1.53;;;0.73;;
28529;SDS011;15737;49.760;6.632;2022-09-27T17:53:50;1.30;;;0.57;;
28529;SDS011;15737;49.760;6.632;2022-09-27T17:56:16;0.40;;;0.40;;
28529;SDS011;15737;49.760;6.632;2022-09-27T17:58:45;0.50;;;0.50;;
28529;SDS011;15737;49.760;6.632;2022-09-27T18:01:16;2.13;;;0.53;;
28529;SDS011;15737;49.760;6.632;2022-09-27T18:03:43;0.50;;;0.30;;
28529;SDS011;15737;49.760;6.632;2022-09-27T18:06:09;2.37;;;0.70;;